x

Corpus Christi, Tx - 60nm Sse Of Corpus Christi, Tx (42020) Wave Buoy

6:50pm - Thu 17th Apr 2014 All times are CDT. -5 hours from GMT.

  • Sig Wave height 5.2ft
  • Swell Direction
  • Peak Period 6s
  • Average Period 5s
  • Wind
    18mph, 22mph gusts
  • Sea Temp 69°f
  • Air Temp 69°f
  • Sea Pressure 1015.4mb
  • Corpus Christi, Tx - 60nm Sse Of Corpus Christi, Tx
  • Corpus Christi, Tx - 60nm Sse Of Corpus Christi, Tx

More Historic Weather Station data

Upgrade to MSW Pro to gain access to the past 30 days of data for over 8000 Wavebouys and Weather Stations around the globe.

Join Pro

Comparision Forecast

View Surf forecast
   
Thu 04/17 6:50pm 5ft 6s 5s 18 22 mph 1015.4mb 69f 69f
5:50pm 4.5ft 6s 5s 18 22 mph 1015.1mb 69f 69f
4:50pm 4.5ft 6s 4s 18 20 mph 1015.1mb 69f 69f
3:50pm 4ft 5s 4s 16 18 mph 1015.5mb 69f 68f
2:50pm 4ft 5s 5s 13 18 mph 1015.9mb 69f 68f
1:50pm 4ft 6s 5s 13 16 mph 1016.3mb 69f 68f
12:50pm 4ft 6s 4s 13 16 mph 1016.1mb 69f 68f
11:50am 4.5ft 5s 5s 16 18 mph 1016.1mb 69f 69f
10:50am 4.5ft 6s 5s 13 16 mph 1015.8mb 69f 69f
9:50am 4.5ft 6s 5s 13 16 mph 1015.5mb 69f 68f
8:50am 4.5ft 7s 5s 16 18 mph 1014.1mb 69f 69f
7:50am 4.5ft 5s 5s 13 18 mph 1014.7mb 69f 68f
6:50am 4.5ft 6s 5s 16 18 mph 1014.1mb 69f 67f
5:50am 4.5ft 6s 5s 13 16 mph 1013.5mb 69f 68f
4:50am 4.5ft 6s 5s 20 25 mph 1013.1mb 69f 66f
3:50am 4.5ft 5s 5s 18 22 mph 1013.9mb 69f 66f
2:50am 4.5ft 5s 4s 16 20 mph 1014.4mb 69f 67f
1:50am 4.5ft 5s 4s 22 27 mph 1014mb 69f 69f
12:50am 4.5ft 5s 4s 22 25 mph 1014.5mb 69f 69f
Wed 04/16 11:50pm 4ft 4s 4s 18 22 mph 1015.3mb 69f 68f
10:50pm 3.5ft 5s 4s 18 22 mph 1015.2mb 69f 68f
9:50pm 3.5ft 5s 4s 18 20 mph 1015.1mb 69f 68f
8:50pm 3.5ft 5s 4s 16 20 mph 1014.7mb 69f 68f
7:50pm 3.5ft 5s 4s 16 18 mph 1014.7mb 69f 67f
6:50pm 3.5ft 6s 4s 16 20 mph 1014.4mb 69f 67f
5:50pm 3.5ft 6s 4s 16 20 mph 1014.6mb 69f 67f
4:50pm 3.5ft 6s 4s 18 20 mph 1015mb 69f 66f
3:50pm 3.5ft 6s 4s 18 20 mph 1015.7mb 69f 66f
2:50pm 3.5ft 7s 4s 16 18 mph 1017mb 69f 66f
1:50pm 3ft 7s 4s 16 18 mph 1017.7mb 69f 65f
12:50pm 3.5ft 7s 4s 16 18 mph 1018.6mb 69f 65f
11:50am 3ft 7s 4s 16 18 mph 1019.7mb 69f 64f
10:50am 3.5ft 7s 4s 11 13 mph 1020.1mb 69f 64f
9:50am 3.5ft 7s 4s 16 18 mph 1019.4mb 69f 64f
8:50am 3.5ft 6s 4s 16 18 mph 1019.2mb 69f 63f
7:50am 3.5ft 7s 4s 16 20 mph 1019.1mb 69f 62f
6:50am 3.5ft 7s 5s 16 20 mph 1018.9mb 69f 62f
5:50am 3.5ft 7s 5s 13 18 mph 1019.1mb 69f 61f
4:50am 4ft 7s 5s 11 16 mph 1019.6mb 69f 61f
3:50am 4.5ft 7s 5s 11 16 mph 1019.8mb 69f 61f
2:50am 4.5ft 7s 5s 13 18 mph 1020.2mb 69f 61f
1:50am 4.5ft 6s 5s 11 18 mph 1021mb 69f 60f
12:50am 4.5ft 8s 5s 11 16 mph 1021.7mb 69f 60f
Tue 04/15 11:50pm 5ft 8s 6s 11 13 mph 1022.2mb 69f 60f
10:50pm 5ft 7s 6s 11 18 mph 1022.5mb 69f 60f
9:50pm 6ft 8s 6s 16 20 mph 1022.1mb 69f 60f
8:50pm 7ft 8s 6s 16 18 mph 1021.9mb 69f 60f
7:50pm 7ft 8s 6s 16 20 mph 1021.8mb 69f 59f
6:50pm 7.5ft 8s 6s 16 20 mph 1022.1mb 69f 58f
5:50pm 8ft 9s 6s 16 20 mph 1022mb 69f 58f
4:50pm 8ft 8s 6s 18 25 mph 1022.3mb 69f 57f
3:50pm 8.5ft 8s 6s 20 25 mph 1023.2mb 69f 56f
2:50pm 9ft 9s 6s 22 27 mph 1024.2mb 69f 56f
1:50pm 8.5ft 9s 6s 25 29 mph 1025.1mb 69f 56f
12:50pm 9.5ft 9s 6s 22 27 mph 1026.5mb 69f 56f
11:50am 10.5ft 10s 7s 22 27 mph 1027.1mb 69f 55f
10:50am 11ft 9s 7s 27 36 mph 1026.1mb 69f 55f
9:50am 12ft 9s 7s 29 38 mph 1025.4mb 69f 56f
8:50am 12ft 9s 7s 29 36 mph 1025.2mb 69f 56f
7:50am 14ft 9s 7s 31 38 mph 1024.5mb 69f 56f
6:50am 13ft 9s 7s 31 38 mph 1024.2mb 69f 57f
5:50am 13ft 9s 7s 31 40 mph 1023.4mb 69f 57f
4:50am 14.5ft 9s 7s 34 40 mph 1022.8mb 69f 58f
3:50am 15ft 9s 7s 34 40 mph 1022.5mb 69f 59f
2:50am 16ft 8s 7s 36 43 mph 1021.7mb 69f 59f
1:50am 15.5ft 8s 7s 38 47 mph 1020.5mb 69f 60f
12:50am 14ft 8s 7s 38 49 mph 1019.6mb 69f 60f
Mon 04/14 11:50pm 12ft 8s 6s 38 49 mph 1019.3mb 69f 61f
10:50pm 12ft 8s 6s 36 45 mph 1018.4mb 69f 62f
9:50pm 12.5ft 8s 6s 36 43 mph 1016.8mb 69f 62f
8:50pm 13ft 7s 6s 34 43 mph 1015mb 69f 61f
7:50pm 12ft 8s 6s 36 43 mph 1013.4mb 70f 60f
6:50pm 11.5ft 8s 6s 36 40 mph 1012.2mb 70f 59f
5:50pm 11ft 8s 6s 38 47 mph 1011mb 70f 60f
4:50pm 10ft 6s 5s 34 40 mph 1010mb 70f 61f
3:50pm 6ft 5s 4s 36 43 mph 1009.1mb 71f 61f
2:50pm 4.5ft 8s 6s  -  mph 1008mb 71f 64f
1:50pm 4.5ft 7s 6s 2 7 mph 1007.8mb 71f 72f
12:50pm 5ft 7s 6s 4
mph
1007mb 71f 73f
11:50am 5ft 7s 6s 7 9 mph 1007.1mb 71f 73f
10:50am 4.5ft 7s 5s 13 16 mph 1006.5mb 71f 73f
9:50am 4.5ft 7s 5s 13 18 mph 1006.2mb 71f 72f
8:50am 5ft 7s 6s 13 16 mph 1006mb 71f 72f
7:50am 5ft 7s 6s 9 11 mph 1005.8mb 71f 72f
6:50am 5ft 7s 6s 11 13 mph 1005.1mb 71f 72f
5:50am 5ft 7s 6s 13 16 mph 1004.6mb 71f 72f
4:50am 5ft 7s 6s 13
mph
1004.6mb 71f 72f
3:50am 4.5ft 7s 5s 13 16 mph 1004.6mb 71f 72f
2:50am 4.5ft 7s 5s 13 16 mph 1005.7mb 71f 72f
1:50am 4.5ft 7s 5s 9 11 mph 1006.8mb 71f 72f